Time;durP1;ratioP1;P1;durP2;ratioP2;P2;SDS_P1;SDS_P2;PMS_P1;PMS_P2;Temp;Humidity;BMP_temperature;BMP_pressure;BME280_temperature;BME280_humidity;BME280_pressure;Samples;Min_cycle;Max_cycle;Signal;HPM_P1;HPM_P2
2021/12/02 00:01:17;;;;;;;12.27;2.10;;;9.10;62.50;;;;;;4991032;28;20186;-66
2021/12/02 00:03:44;;;;;;;8.75;1.80;;;9.60;60.10;;;;;;4990846;28;20524;-66
2021/12/02 00:06:13;;;;;;;13.32;3.05;;;9.50;57.10;;;;;;4989076;28;20276;-70
2021/12/02 00:08:39;;;;;;;12.02;1.92;;;9.30;59.70;;;;;;4991027;28;20217;-69
2021/12/02 00:11:05;;;;;;;24.63;5.40;;;9.00;60.10;;;;;;4997379;28;20252;-70
2021/12/02 00:13:41;;;;;;;12.73;2.15;;;9.20;59.90;;;;;;4995528;28;20209;-70
2021/12/02 00:21:18;;;;;;;9.50;1.80;;;9.40;55.40;;;;;;4990833;28;20265;-70
2021/12/02 00:24:05;;;;;;;8.23;1.65;;;9.60;55.20;;;;;;4991372;28;20198;-71
2021/12/02 00:26:33;;;;;;;13.60;2.15;;;9.60;54.30;;;;;;4977371;28;20316;-69
2021/12/02 00:29:02;;;;;;;10.88;2.13;;;9.50;54.50;;;;;;4991860;28;20193;-69
2021/12/02 00:31:35;;;;;;;11.57;2.00;;;9.50;54.50;;;;;;5033029;28;20771;-70
2021/12/02 00:34:04;;;;;;;12.85;2.05;;;9.50;53.70;;;;;;5044007;28;20199;-71
2021/12/02 00:36:32;;;;;;;7.50;1.55;;;9.00;55.50;;;;;;5035321;28;20177;-70
2021/12/02 00:39:03;;;;;;;10.27;1.95;;;9.40;54.50;;;;;;5040068;28;20176;-70
2021/12/02 00:41:29;;;;;;;10.57;1.90;;;9.40;55.50;;;;;;5050621;28;20189;-70
2021/12/02 00:43:56;;;;;;;10.03;2.00;;;9.40;53.40;;;;;;5052600;28;20192;-71
2021/12/02 00:46:25;;;;;;;8.57;1.90;;;9.60;53.50;;;;;;5052134;28;20437;-70
2021/12/02 00:48:51;;;;;;;13.75;2.70;;;9.60;52.10;;;;;;5049230;28;20582;-71
2021/12/02 00:51:18;;;;;;;10.33;2.10;;;9.70;52.70;;;;;;5052095;28;20263;-71
2021/12/02 00:53:52;;;;;;;11.65;2.00;;;9.70;53.50;;;;;;5047615;28;20450;-69
2021/12/02 00:56:24;;;;;;;8.05;1.92;;;9.70;53.30;;;;;;5051925;28;20184;-69
2021/12/02 00:58:52;;;;;;;11.38;1.90;;;9.90;53.50;;;;;;5050966;28;20172;-69
2021/12/02 01:01:20;;;;;;;7.82;1.70;;;10.00;50.40;;;;;;5042939;28;20192;-71
2021/12/02 01:03:49;;;;;;;9.10;1.70;;;9.80;52.00;;;;;;5032708;28;20552;-71
2021/12/02 01:06:15;;;;;;;9.85;2.10;;;9.80;52.60;;;;;;5047493;28;20436;-70
2021/12/02 01:08:40;;;;;;;11.93;2.13;;;10.00;50.50;;;;;;5045364;28;20262;-70
2021/12/02 01:11:08;;;;;;;10.17;1.80;;;9.80;50.90;;;;;;5047846;28;20165;-69
2021/12/02 01:13:33;;;;;;;8.15;1.63;;;9.30;52.40;;;;;;5038093;28;20185;-70
2021/12/02 01:15:59;;;;;;;12.57;2.37;;;9.40;53.10;;;;;;5032060;28;20239;-70
2021/12/02 01:18:25;;;;;;;11.43;2.07;;;9.20;53.70;;;;;;5041138;28;20183;-70
2021/12/02 01:20:52;;;;;;;8.05;1.75;;;9.20;52.60;;;;;;5033196;28;20208;-70
2021/12/02 01:23:20;;;;;;;10.23;2.00;;;9.30;53.90;;;;;;5050009;28;20195;-70
2021/12/02 01:25:58;;;;;;;10.07;1.85;;;9.30;53.40;;;;;;5047876;28;20268;-70
2021/12/02 01:28:24;;;;;;;12.48;2.20;;;9.30;52.80;;;;;;5045869;28;20613;-70
2021/12/02 01:30:52;;;;;;;11.23;1.90;;;8.80;54.80;;;;;;5032955;28;20201;-70
2021/12/02 01:33:20;;;;;;;11.70;2.05;;;8.40;56.60;;;;;;5045970;28;20454;-70
2021/12/02 01:35:50;;;;;;;12.73;2.10;;;8.20;58.30;;;;;;5038718;28;20177;-70
2021/12/02 01:39:12;;;;;;;7.47;1.90;;;8.20;60.80;;;;;;5031704;28;20259;-70
2021/12/02 01:41:50;;;;;;;9.90;1.90;;;7.80;63.80;;;;;;5036236;28;20202;-69
2021/12/02 01:44:19;;;;;;;12.07;2.15;;;8.10;64.00;;;;;;5043484;28;20271;-69
2021/12/02 01:46:48;;;;;;;12.10;2.00;;;8.60;59.20;;;;;;5051124;28;20210;-67
2021/12/02 01:49:14;;;;;;;9.80;2.10;;;9.30;56.00;;;;;;5050726;28;20199;-70
2021/12/02 01:55:08;;;;;;;11.23;1.92;;;9.40;52.40;;;;;;5049954;28;20772;-69
2021/12/02 01:57:39;;;;;;;9.73;1.90;;;9.50;52.50;;;;;;5050982;28;20685;-69
2021/12/02 02:00:12;;;;;;;11.00;2.03;;;9.60;52.00;;;;;;5049855;28;20207;-69
2021/12/02 02:02:39;;;;;;;9.05;2.08;;;9.30;53.60;;;;;;5046303;28;20184;-69
2021/12/02 02:05:12;;;;;;;10.15;2.00;;;9.50;53.20;;;;;;5040379;28;20443;-70
2021/12/02 02:08:00;;;;;;;10.40;2.00;;;9.60;54.10;;;;;;5050509;28;20200;-65
2021/12/02 02:10:28;;;;;;;10.98;2.10;;;10.00;49.60;;;;;;5039701;28;20218;-70
2021/12/02 02:12:58;;;;;;;10.95;2.08;;;10.00;48.70;;;;;;5040840;28;20178;-69
2021/12/02 02:15:27;;;;;;;9.25;2.05;;;10.00;50.00;;;;;;5041270;28;20183;-68
2021/12/02 02:18:01;;;;;;;9.60;1.98;;;10.00;50.20;;;;;;5045852;28;20220;-70
2021/12/02 02:20:58;;;;;;;13.02;2.35;;;10.00;50.40;;;;;;5046916;28;20218;-70
2021/12/02 02:23:26;;;;;;;12.85;2.38;;;9.80;52.00;;;;;;5048000;28;20184;-70
2021/12/02 02:25:53;;;;;;;10.15;2.05;;;9.70;53.80;;;;;;5047039;28;20648;-67
2021/12/02 02:28:18;;;;;;;10.20;2.08;;;9.70;53.30;;;;;;5042957;28;20223;-69
2021/12/02 02:30:44;;;;;;;16.57;2.63;;;9.50;54.50;;;;;;5043722;28;20666;-67
2021/12/02 02:33:11;;;;;;;14.33;2.33;;;9.20;56.70;;;;;;5042343;28;20175;-69
2021/12/02 02:35:38;;;;;;;16.58;2.67;;;8.00;67.10;;;;;;5045709;28;20414;-69
2021/12/02 02:38:05;;;;;;;8.52;1.70;;;7.00;78.80;;;;;;5046747;28;20176;-70
2021/12/02 02:40:32;;;;;;;13.75;2.25;;;7.00;83.90;;;;;;5046803;28;20354;-68
2021/12/02 02:43:05;;;;;;;11.48;2.17;;;7.00;80.40;;;;;;5045301;28;20184;-69
2021/12/02 02:45:31;;;;;;;11.18;2.15;;;7.10;81.60;;;;;;5044866;28;20176;-69
2021/12/02 02:47:56;;;;;;;12.20;2.10;;;7.50;75.50;;;;;;5045778;28;20277;-67
2021/12/02 02:50:22;;;;;;;6.57;1.47;;;7.40;70.10;;;;;;5046017;28;20334;-69
2021/12/02 02:52:49;;;;;;;11.40;2.00;;;7.30;71.10;;;;;;5045465;28;20184;-70
2021/12/02 02:55:22;;;;;;;9.60;1.83;;;7.70;67.50;;;;;;5045284;28;20643;-69
2021/12/02 02:58:27;;;;;;;8.43;1.70;;;7.80;67.50;;;;;;5045694;28;20220;-68
2021/12/02 03:00:51;;;;;;;12.77;2.20;;;8.20;63.50;;;;;;5042459;28;20208;-70
2021/12/02 03:03:32;;;;;;;10.38;1.85;;;8.30;61.10;;;;;;5047395;28;20176;-69
2021/12/02 03:08:33;;;;;;;12.75;2.60;;;8.00;62.20;;;;;;5045019;28;20208;-69
2021/12/02 03:10:59;;;;;;;10.27;1.92;;;8.10;62.80;;;;;;5046201;28;20210;-70
2021/12/02 03:13:48;;;;;;;7.95;1.80;;;7.90;63.20;;;;;;5045414;28;20664;-69
2021/12/02 03:18:58;;;;;;;14.35;2.95;;;8.50;59.20;;;;;;5043186;28;20215;-70
2021/12/02 03:21:24;;;;;;;10.57;2.10;;;9.10;54.50;;;;;;5045729;28;20553;-73
2021/12/02 03:23:52;;;;;;;7.93;1.70;;;9.20;53.30;;;;;;5046178;28;20176;-70
2021/12/02 03:26:18;;;;;;;10.63;2.33;;;9.30;54.20;;;;;;5044057;28;20651;-67
2021/12/02 03:28:45;;;;;;;8.17;1.80;;;9.70;52.40;;;;;;5047552;28;20204;-70
2021/12/02 03:31:11;;;;;;;9.57;1.95;;;9.50;53.10;;;;;;5044677;28;20177;-69
2021/12/02 03:33:37;;;;;;;10.50;1.90;;;9.30;53.40;;;;;;5046805;28;20168;-70
2021/12/02 03:36:03;;;;;;;10.73;2.20;;;9.20;53.90;;;;;;5043900;28;20203;-69
2021/12/02 03:38:28;;;;;;;8.73;2.00;;;8.70;55.10;;;;;;5044785;28;20598;-70
2021/12/02 03:40:54;;;;;;;8.43;1.70;;;9.00;54.00;;;;;;5047647;28;20211;-70
2021/12/02 03:43:21;;;;;;;10.20;2.17;;;9.10;53.50;;;;;;5044703;28;20189;-70
2021/12/02 03:45:47;;;;;;;10.48;2.33;;;9.40;53.10;;;;;;5043122;28;20181;-73
2021/12/02 03:48:13;;;;;;;9.68;1.88;;;9.60;51.50;;;;;;5045616;28;21678;-70
2021/12/02 03:50:39;;;;;;;6.83;1.60;;;9.40;52.20;;;;;;5043466;28;20286;-70
2021/12/02 03:53:05;;;;;;;10.27;2.20;;;9.50;52.70;;;;;;5045946;28;20199;-69
2021/12/02 03:55:30;;;;;;;8.57;1.90;;;9.70;53.00;;;;;;5025076;28;20682;-70
2021/12/02 03:57:56;;;;;;;13.17;2.33;;;9.50;52.90;;;;;;5043809;28;20187;-70
2021/12/02 04:00:23;;;;;;;13.97;3.27;;;9.30;53.30;;;;;;5043569;28;20218;-67
2021/12/02 04:02:48;;;;;;;11.65;2.30;;;9.00;55.20;;;;;;5044564;28;20711;-68
2021/12/02 04:05:14;;;;;;;11.37;2.40;;;8.60;58.10;;;;;;5042838;28;20188;-67
2021/12/02 04:07:40;;;;;;;11.70;2.53;;;8.30;60.10;;;;;;5045009;28;20294;-67
2021/12/02 04:10:05;;;;;;;8.77;1.80;;;8.60;60.30;;;;;;5041171;28;20223;-67
2021/12/02 04:12:58;;;;;;;10.50;2.20;;;9.10;57.80;;;;;;5043111;28;20180;-67
2021/12/02 04:15:27;;;;;;;15.35;2.58;;;9.20;54.50;;;;;;5040829;28;20656;-68
2021/12/02 04:17:53;;;;;;;10.73;1.95;;;9.00;55.80;;;;;;5043479;28;20716;-67
2021/12/02 04:20:22;;;;;;;12.43;2.50;;;8.60;57.70;;;;;;5042723;28;20204;-67
2021/12/02 04:22:49;;;;;;;11.23;2.00;;;8.70;57.10;;;;;;5044362;28;20196;-67
2021/12/02 04:25:16;;;;;;;10.95;2.03;;;8.40;57.80;;;;;;5041783;28;20608;-67
2021/12/02 04:27:44;;;;;;;11.52;2.15;;;8.00;61.30;;;;;;5042540;28;20215;-67
2021/12/02 04:30:14;;;;;;;8.32;2.22;;;8.20;60.10;;;;;;5041927;28;20209;-67
2021/12/02 04:32:40;;;;;;;12.00;2.28;;;8.10;59.50;;;;;;5044256;28;20259;-67
2021/12/02 04:35:07;;;;;;;9.70;1.90;;;8.00;58.80;;;;;;5040053;28;20226;-67
2021/12/02 04:37:33;;;;;;;12.32;2.20;;;7.70;61.50;;;;;;5043252;28;20180;-67
2021/12/02 04:39:58;;;;;;;7.57;1.77;;;7.70;62.70;;;;;;5041173;28;20316;-67
2021/12/02 04:42:24;;;;;;;9.40;2.00;;;8.00;59.50;;;;;;5041221;28;20176;-67
2021/12/02 04:44:51;;;;;;;12.27;2.20;;;8.20;59.40;;;;;;5036577;28;20650;-67
2021/12/02 04:47:16;;;;;;;20.55;3.22;;;7.40;62.70;;;;;;5041896;28;20624;-67
2021/12/02 04:49:43;;;;;;;11.47;2.20;;;7.40;65.50;;;;;;5040421;28;20307;-67
2021/12/02 04:52:09;;;;;;;8.75;1.95;;;7.60;62.50;;;;;;5041217;28;20407;-67
2021/12/02 04:54:35;;;;;;;13.00;2.43;;;7.50;64.20;;;;;;5042033;28;20187;-67
2021/12/02 04:57:01;;;;;;;11.95;2.38;;;7.80;63.10;;;;;;5039757;28;20446;-67
2021/12/02 04:59:26;;;;;;;9.23;2.07;;;8.30;59.60;;;;;;5043869;28;20258;-67
2021/12/02 05:01:52;;;;;;;13.50;2.20;;;8.70;54.80;;;;;;5041559;28;20184;-67
2021/12/02 05:04:17;;;;;;;10.20;2.23;;;8.20;57.70;;;;;;5040076;28;20191;-67
2021/12/02 05:06:43;;;;;;;13.07;2.33;;;8.20;59.50;;;;;;5040958;28;20219;-67
2021/12/02 05:09:09;;;;;;;10.77;2.27;;;8.50;56.30;;;;;;5042248;28;20188;-67
2021/12/02 05:11:37;;;;;;;9.90;2.17;;;8.80;55.70;;;;;;5040545;28;20423;-67
2021/12/02 05:14:03;;;;;;;8.93;1.95;;;8.90;55.40;;;;;;5040286;28;20604;-67
2021/12/02 05:16:29;;;;;;;11.67;2.23;;;9.00;54.80;;;;;;5042631;28;20219;-67
2021/12/02 05:18:54;;;;;;;10.30;2.13;;;9.00;54.50;;;;;;5040448;28;20190;-67
2021/12/02 05:21:20;;;;;;;12.17;2.20;;;9.10;55.10;;;;;;5041705;28;20168;-68
2021/12/02 05:23:49;;;;;;;13.90;2.50;;;9.30;53.20;;;;;;5040300;28;20262;-69
2021/12/02 05:26:14;;;;;;;9.60;2.30;;;7.20;49.30;;;;;;5043157;28;20375;-68
2021/12/02 05:28:40;;;;;;;10.43;2.00;;;9.40;52.10;;;;;;5041335;28;20282;-68
2021/12/02 05:31:06;;;;;;;10.40;2.10;;;9.40;51.60;;;;;;5039883;28;20188;-67
2021/12/02 05:33:31;;;;;;;10.70;2.03;;;9.00;51.50;;;;;;5041446;28;20221;-67
2021/12/02 05:35:57;;;;;;;11.90;2.07;;;8.40;57.20;;;;;;5041569;28;20699;-67
2021/12/02 05:38:22;;;;;;;10.90;2.83;;;8.90;54.50;;;;;;5042378;28;20179;-67
2021/12/02 05:40:48;;;;;;;12.60;2.30;;;9.30;52.20;;;;;;5039729;28;20263;-69
2021/12/02 05:43:14;;;;;;;16.27;2.93;;;9.30;52.90;;;;;;5041711;28;20691;-67
2021/12/02 05:45:39;;;;;;;11.90;2.23;;;9.40;52.90;;;;;;5041225;28;20553;-67
2021/12/02 05:48:05;;;;;;;7.13;1.60;;;9.30;51.60;;;;;;5042120;28;20203;-68
2021/12/02 05:50:31;;;;;;;9.17;1.90;;;9.30;52.10;;;;;;5038119;28;20614;-67
2021/12/02 05:52:56;;;;;;;11.50;2.30;;;9.20;54.10;;;;;;5050258;28;20685;-67
2021/12/02 05:55:22;;;;;;;15.60;2.57;;;9.50;51.00;;;;;;5050897;28;20252;-67
2021/12/02 05:57:48;;;;;;;14.47;2.27;;;8.60;53.40;;;;;;5048587;28;20180;-67
2021/12/02 06:00:14;;;;;;;8.33;1.80;;;8.10;57.80;;;;;;5044801;28;20254;-67
2021/12/02 06:02:40;;;;;;;8.80;1.77;;;8.30;57.70;;;;;;5047597;28;20517;-67
2021/12/02 06:05:06;;;;;;;10.30;2.00;;;8.90;53.70;;;;;;5046408;28;20276;-67
2021/12/02 06:07:32;;;;;;;10.60;2.00;;;9.00;52.70;;;;;;5030416;28;20196;-67
2021/12/02 06:09:58;;;;;;;9.32;1.90;;;8.90;53.30;;;;;;5031231;28;20199;-67
2021/12/02 06:12:24;;;;;;;11.77;2.20;;;8.40;54.60;;;;;;5034920;28;20258;-67
2021/12/02 06:14:50;;;;;;;7.97;1.80;;;8.10;59.60;;;;;;5035986;28;20180;-67
2021/12/02 06:17:15;;;;;;;9.37;2.00;;;8.50;57.50;;;;;;5030952;28;20608;-67
2021/12/02 06:19:41;;;;;;;8.50;1.80;;;8.90;55.80;;;;;;5037527;28;20208;-67
2021/12/02 06:22:08;;;;;;;19.20;3.27;;;9.30;54.60;;;;;;5050576;28;20221;-67
2021/12/02 06:27:23;;;;;;;9.57;2.17;;;9.30;52.90;;;;;;5025967;28;20211;-67
2021/12/02 06:29:49;;;;;;;8.27;1.70;;;9.20;53.50;;;;;;5050480;28;20211;-68
2021/12/02 06:32:14;;;;;;;9.00;1.97;;;9.20;54.30;;;;;;5050809;28;20205;-67
2021/12/02 06:34:40;;;;;;;9.17;2.27;;;9.30;53.40;;;;;;5047561;28;20195;-67
2021/12/02 06:37:05;;;;;;;9.50;2.10;;;9.40;52.60;;;;;;5030692;28;20207;-67
2021/12/02 06:39:31;;;;;;;8.40;1.97;;;9.60;50.50;;;;;;5047120;28;20215;-68
2021/12/02 06:41:57;;;;;;;8.50;1.70;;;9.70;51.60;;;;;;5050750;28;20180;-67
2021/12/02 06:44:23;;;;;;;9.40;2.17;;;9.80;49.40;;;;;;5048892;28;20172;-67
2021/12/02 06:46:48;;;;;;;8.73;1.80;;;9.70;49.30;;;;;;5049984;28;20609;-67
2021/12/02 06:49:14;;;;;;;15.47;2.73;;;9.70;50.10;;;;;;5048953;28;20238;-67
2021/12/02 06:51:39;;;;;;;7.53;1.87;;;9.70;51.00;;;;;;5050594;28;20192;-67
2021/12/02 06:54:05;;;;;;;9.37;2.20;;;9.20;49.60;;;;;;5049520;28;20271;-67
2021/12/02 06:56:31;;;;;;;6.07;1.43;;;8.80;53.90;;;;;;5050444;28;20179;-67
2021/12/02 06:58:56;;;;;;;11.30;2.10;;;8.10;55.60;;;;;;5044692;28;20176;-67
2021/12/02 07:01:22;;;;;;;11.77;2.20;;;8.10;56.20;;;;;;5030842;28;20574;-67
2021/12/02 07:03:48;;;;;;;10.43;1.97;;;7.60;59.40;;;;;;5039919;28;20190;-67
2021/12/02 07:06:13;;;;;;;13.47;2.87;;;7.30;63.30;;;;;;5054218;28;20172;-67
2021/12/02 07:08:39;;;;;;;12.97;2.17;;;7.30;66.00;;;;;;5051256;28;20660;-67
2021/12/02 07:11:08;;;;;;;13.87;2.30;;;7.20;67.50;;;;;;5033982;28;20200;-67
2021/12/02 07:13:35;;;;;;;8.73;1.83;;;7.50;64.20;;;;;;5032948;28;20583;-67
2021/12/02 07:16:02;;;;;;;12.35;3.13;;;7.20;67.60;;;;;;5034953;28;20229;-67
2021/12/02 07:18:28;;;;;;;12.80;2.15;;;7.40;65.80;;;;;;5034255;28;20233;-67
2021/12/02 07:20:53;;;;;;;9.80;2.07;;;7.20;65.50;;;;;;5033395;28;20212;-67
2021/12/02 07:23:20;;;;;;;11.07;2.00;;;7.40;66.30;;;;;;5034159;28;20564;-67
2021/12/02 07:25:47;;;;;;;7.82;1.85;;;7.70;63.00;;;;;;5035115;28;20184;-67
2021/12/02 07:28:15;;;;;;;6.65;1.95;;;8.00;60.40;;;;;;5034252;28;20208;-69
2021/12/02 07:30:41;;;;;;;9.32;1.98;;;8.00;60.50;;;;;;5035076;28;20199;-74
2021/12/02 07:33:09;;;;;;;7.00;1.60;;;7.90;61.10;;;;;;5034046;28;20180;-74
2021/12/02 07:35:35;;;;;;;8.15;1.70;;;8.10;59.60;;;;;;5037724;28;20182;-74
2021/12/02 07:38:03;;;;;;;8.85;1.85;;;7.90;59.40;;;;;;5053302;28;20207;-74
2021/12/02 07:40:33;;;;;;;11.90;2.70;;;7.90;60.10;;;;;;5047555;28;20259;-70
2021/12/02 07:43:00;;;;;;;10.63;2.58;;;8.10;60.60;;;;;;5039115;28;20177;-69
2021/12/02 07:45:31;;;;;;;7.93;2.22;;;8.70;56.10;;;;;;5042195;28;20242;-68
2021/12/02 07:47:57;;;;;;;7.78;1.70;;;8.80;55.50;;;;;;5047187;28;20208;-69
2021/12/02 07:50:23;;;;;;;6.03;1.55;;;8.90;53.70;;;;;;5034976;28;20200;-69
2021/12/02 07:52:52;;;;;;;8.17;2.10;;;9.00;55.60;;;;;;5045110;28;20715;-69
2021/12/02 07:55:19;;;;;;;15.25;2.60;;;9.10;53.30;;;;;;5047542;28;20598;-69
2021/12/02 07:57:45;;;;;;;10.32;3.95;;;8.40;56.00;;;;;;5036107;28;20176;-69
2021/12/02 08:00:15;;;;;;;13.27;2.72;;;8.60;56.20;;;;;;5042292;28;20627;-69
2021/12/02 08:02:50;;;;;;;8.90;2.10;;;9.30;53.00;;;;;;5053081;28;20176;-69
2021/12/02 08:05:16;;;;;;;10.38;2.10;;;8.80;53.80;;;;;;5034865;28;20176;-69
2021/12/02 08:07:44;;;;;;;8.18;2.10;;;8.90;53.10;;;;;;5033026;28;20196;-69
2021/12/02 08:10:11;;;;;;;10.77;2.53;;;9.00;51.50;;;;;;5033065;28;20203;-68
2021/12/02 08:12:39;;;;;;;20.15;3.22;;;8.50;53.80;;;;;;5044789;28;20845;-68
2021/12/02 08:15:07;;;;;;;11.52;2.30;;;8.00;57.30;;;;;;5040859;28;20202;-68
2021/12/02 08:17:33;;;;;;;8.63;1.98;;;8.20;56.20;;;;;;5052496;28;20202;-68
2021/12/02 08:19:58;;;;;;;6.73;1.70;;;8.20;54.50;;;;;;5050963;28;20691;-69
2021/12/02 08:22:24;;;;;;;9.20;2.10;;;8.00;55.50;;;;;;5051279;28;20561;-68
2021/12/02 08:24:50;;;;;;;9.93;2.00;;;8.00;55.10;;;;;;5037492;28;20181;-68
2021/12/02 08:27:16;;;;;;;10.47;2.40;;;8.00;55.10;;;;;;5032430;28;20977;-68
2021/12/02 08:29:42;;;;;;;8.97;2.27;;;8.20;53.10;;;;;;5036613;28;20250;-69
2021/12/02 08:32:08;;;;;;;8.07;1.77;;;8.30;53.30;;;;;;5052338;28;20208;-68
2021/12/02 08:34:34;;;;;;;7.13;1.77;;;8.30;53.00;;;;;;5050886;28;20195;-68
2021/12/02 08:37:00;;;;;;;5.57;1.43;;;8.30;52.50;;;;;;5052083;28;20184;-68
2021/12/02 08:39:28;;;;;;;10.47;2.07;;;8.60;51.40;;;;;;5052417;28;21007;-67
2021/12/02 08:41:55;;;;;;;9.80;2.15;;;8.80;51.50;;;;;;5038004;28;20196;-68
2021/12/02 08:44:22;;;;;;;8.52;1.77;;;8.70;49.70;;;;;;5050891;28;20180;-68
2021/12/02 08:46:50;;;;;;;7.93;1.70;;;8.70;48.40;;;;;;5043900;28;20180;-68
2021/12/02 08:49:16;;;;;;;9.20;1.90;;;8.70;49.90;;;;;;5050515;28;20584;-68
2021/12/02 08:51:42;;;;;;;9.05;1.95;;;8.70;49.30;;;;;;5051622;28;20202;-68
2021/12/02 08:54:08;;;;;;;10.15;2.28;;;8.90;49.30;;;;;;5049527;28;20255;-68
2021/12/02 08:56:34;;;;;;;12.87;2.40;;;8.90;49.50;;;;;;5047578;28;20267;-73
2021/12/02 08:58:59;;;;;;;8.27;1.73;;;9.30;47.70;;;;;;5041224;28;20188;-69
2021/12/02 09:01:27;;;;;;;9.93;1.90;;;8.50;49.60;;;;;;5036769;28;20514;-69
2021/12/02 09:03:53;;;;;;;8.15;2.00;;;8.50;50.70;;;;;;5045737;28;20277;-68
2021/12/02 09:06:21;;;;;;;8.93;1.93;;;9.00;50.80;;;;;;5044865;28;20279;-69
2021/12/02 09:08:47;;;;;;;7.63;1.77;;;9.30;49.00;;;;;;5042845;28;20619;-69
2021/12/02 09:11:12;;;;;;;8.40;1.83;;;9.70;48.30;;;;;;5032063;28;20241;-69
2021/12/02 09:13:38;;;;;;;8.43;1.80;;;9.80;49.40;;;;;;5040842;28;20191;-69
2021/12/02 09:16:04;;;;;;;9.37;2.63;;;9.50;47.70;;;;;;5036733;28;20563;-69
2021/12/02 09:18:30;;;;;;;8.02;1.88;;;9.80;46.30;;;;;;5037094;28;20184;-68
2021/12/02 09:20:57;;;;;;;7.23;1.70;;;9.60;46.30;;;;;;5033042;28;20208;-69
2021/12/02 09:23:22;;;;;;;9.82;2.25;;;9.40;46.80;;;;;;5032772;28;20330;-69
2021/12/02 09:25:48;;;;;;;8.70;1.83;;;9.40;49.10;;;;;;5034447;28;20300;-69
2021/12/02 09:28:15;;;;;;;9.60;1.93;;;9.10;48.50;;;;;;5049498;28;20209;-68
2021/12/02 09:30:41;;;;;;;21.75;3.03;;;7.90;54.30;;;;;;5049613;28;20204;-68
2021/12/02 09:33:07;;;;;;;9.05;1.80;;;7.70;55.00;;;;;;5050926;28;20538;-68
2021/12/02 09:35:33;;;;;;;9.23;2.28;;;8.20;52.80;;;;;;5050352;28;20176;-69
2021/12/02 09:37:59;;;;;;;14.75;2.75;;;8.30;51.30;;;;;;5039039;28;20188;-68
2021/12/02 09:40:25;;;;;;;8.97;1.83;;;8.20;51.50;;;;;;5030791;28;20212;-68
2021/12/02 09:42:50;;;;;;;11.00;2.10;;;8.60;51.10;;;;;;5039609;28;20200;-69
2021/12/02 09:45:17;;;;;;;9.93;2.07;;;9.40;50.60;;;;;;5048121;28;20182;-68
2021/12/02 09:47:45;;;;;;;9.85;2.15;;;10.50;45.40;;;;;;5049157;28;20486;-68
2021/12/02 09:50:17;;;;;;;9.50;2.05;;;10.80;40.20;;;;;;5050746;28;20224;-68
2021/12/02 09:52:44;;;;;;;8.05;1.80;;;9.60;46.00;;;;;;5051519;28;20259;-68
2021/12/02 09:57:53;;;;;;;8.65;1.88;;;9.60;46.40;;;;;;5051072;28;20156;-68
2021/12/02 10:00:25;;;;;;;59.75;4.18;;;;;;;;;;5074777;22;20233;-70
2021/12/02 10:03:04;;;;;;;32.38;2.80;;;9.70;44.20;;;;;;5017417;28;20187;-69
2021/12/02 10:05:41;;;;;;;18.58;2.10;;;9.00;48.10;;;;;;5012317;28;20186;-70
2021/12/02 10:08:11;;;;;;;24.88;2.42;;;;;;;;;;5010928;28;20205;-69
2021/12/02 10:10:52;;;;;;;27.70;2.55;;;9.20;49.00;;;;;;5012706;28;20217;-71
2021/12/02 10:15:53;;;;;;;25.03;2.37;;;9.30;49.70;;;;;;5011389;28;20175;-71
2021/12/02 10:18:23;;;;;;;52.30;4.05;;;;;;;;;;5010760;28;20253;-71
2021/12/02 10:20:51;;;;;;;23.52;2.33;;;;;;;;;;5029488;28;20543;-71
2021/12/02 10:23:32;;;;;;;41.53;2.80;;;9.10;48.20;;;;;;5030857;28;20223;-71
2021/12/02 10:26:00;;;;;;;40.70;3.85;;;;;;;;;;5030734;28;20167;-71
2021/12/02 10:28:28;;;;;;;20.45;2.20;;;9.10;48.20;;;;;;5030810;28;20202;-71
2021/12/02 10:31:00;;;;;;;21.85;2.15;;;8.60;51.70;;;;;;5029447;28;20202;-71
2021/12/02 10:33:36;;;;;;;19.85;1.98;;;8.70;53.90;;;;;;5030817;28;20623;-71
2021/12/02 10:36:03;;;;;;;51.47;4.20;;;;;;;;;;5030635;28;20676;-70
2021/12/02 10:38:40;;;;;;;23.27;2.40;;;;;;;;;;5032747;28;20186;-71
2021/12/02 10:41:16;;;;;;;20.17;2.28;;;;;;;;;;5033718;28;20211;-69
2021/12/02 10:44:04;;;;;;;17.80;1.95;;;7.70;64.20;;;;;;5034553;28;20169;-71
2021/12/02 10:46:30;;;;;;;22.42;2.20;;;7.20;66.90;;;;;;5034472;28;20178;-71
2021/12/02 10:48:56;;;;;;;27.77;2.37;;;6.50;74.90;;;;;;5034728;28;20565;-71
2021/12/02 10:51:43;;;;;;;20.97;2.23;;;6.60;75.70;;;;;;5024583;28;20436;-71
2021/12/02 10:54:14;;;;;;;17.48;1.83;;;;;;;;;;5014789;28;20475;-71
2021/12/02 10:56:41;;;;;;;19.27;1.83;;;;;;;;;;5014705;28;20157;-71
2021/12/02 10:59:27;;;;;;;24.27;2.30;;;7.20;70.70;;;;;;5014528;28;20199;-71
2021/12/02 11:01:59;;;;;;;23.27;2.15;;;;;;;;;;5023156;28;20770;-71
2021/12/02 11:04:25;;;;;;;24.05;2.28;;;;;;;;;;5034396;28;20523;-71
2021/12/02 11:06:55;;;;;;;34.13;3.00;;;;;;;;;;5033959;28;20227;-70
2021/12/02 11:09:32;;;;;;;19.48;2.03;;;7.50;75.40;;;;;;5034485;28;20388;-71
2021/12/02 11:12:10;;;;;;;21.70;2.13;;;7.40;72.70;;;;;;5032304;28;20193;-71
2021/12/02 11:14:38;;;;;;;21.63;2.03;;;7.50;75.00;;;;;;5034141;28;20172;-71
2021/12/02 11:17:14;;;;;;;22.55;2.25;;;7.90;71.00;;;;;;5033715;28;20191;-71
2021/12/02 11:19:47;;;;;;;22.23;2.22;;;;;;;;;;5034018;28;20157;-71
2021/12/02 11:22:17;;;;;;;25.80;2.80;;;7.40;68.90;;;;;;5029823;28;20798;-71
2021/12/02 11:24:45;;;;;;;20.20;2.17;;;;;;;;;;5014009;28;20180;-71
2021/12/02 11:27:38;;;;;;;18.23;1.85;;;6.90;72.50;;;;;;5013982;28;20784;-71
2021/12/02 11:30:09;;;;;;;26.50;2.30;;;;;;;;;;5014144;28;20590;-71
2021/12/02 11:32:42;;;;;;;17.20;2.03;;;6.40;75.30;;;;;;5015233;28;20577;-68
2021/12/02 11:35:12;;;;;;;30.50;2.60;;;6.50;74.60;;;;;;5033666;28;20244;-71
2021/12/02 11:37:41;;;;;;;21.30;2.10;;;6.50;73.80;;;;;;5033562;28;20200;-71
2021/12/02 11:40:22;;;;;;;22.88;2.10;;;6.60;73.70;;;;;;5033674;28;20181;-71
2021/12/02 11:42:50;;;;;;;42.90;2.97;;;6.50;74.00;;;;;;5048900;28;20184;-71
2021/12/02 11:45:18;;;;;;;21.27;1.95;;;6.60;76.10;;;;;;5014578;28;20178;-71
2021/12/02 11:47:44;;;;;;;21.42;2.33;;;7.10;69.90;;;;;;5013320;28;20209;-71
2021/12/02 11:50:12;;;;;;;18.50;1.98;;;;;;;;;;5012403;28;20174;-71
2021/12/02 11:52:39;;;;;;;24.10;2.20;;;7.20;69.60;;;;;;5013725;28;20686;-70
2021/12/02 11:55:12;;;;;;;27.05;2.60;;;7.10;71.30;;;;;;5021829;28;20188;-71
2021/12/02 11:57:38;;;;;;;37.78;2.83;;;;;;;;;;5033157;28;20595;-71
2021/12/02 12:00:05;;;;;;;25.25;2.13;;;;;;;;;;5033370;28;20199;-71
2021/12/02 12:02:31;;;;;;;23.63;2.22;;;7.00;64.30;;;;;;5032796;28;20248;-71
2021/12/02 12:05:04;;;;;;;25.87;2.30;;;7.00;70.40;;;;;;5029244;28;20216;-71
2021/12/02 12:07:38;;;;;;;22.60;2.10;;;;;;;;;;5013100;28;20261;-71
2021/12/02 12:10:22;;;;;;;25.25;2.45;;;6.60;72.00;;;;;;5013466;28;20185;-71
2021/12/02 12:12:49;;;;;;;25.92;2.17;;;7.00;67.80;;;;;;5013085;28;20173;-71
2021/12/02 12:15:37;;;;;;;30.27;2.58;;;7.00;68.40;;;;;;5013488;28;20201;-71
2021/12/02 12:18:05;;;;;;;17.50;2.15;;;7.20;65.40;;;;;;4993379;28;20177;-71
2021/12/02 12:20:50;;;;;;;25.27;2.45;;;6.60;64.10;;;;;;4993465;28;20224;-70
2021/12/02 12:23:33;;;;;;;18.73;1.85;;;;;;;;;;5008680;28;20190;-71
2021/12/02 12:26:38;;;;;;;46.95;3.70;;;6.20;68.80;;;;;;5031889;28;20180;-69
2021/12/02 12:29:08;;;;;;;27.35;2.70;;;;;;;;;;4952164;29;20269;-71
2021/12/02 12:32:08;;;;;;;23.20;2.20;;;;;;;;;;4952325;29;20781;-71
2021/12/02 12:37:23;;;;;;;22.75;2.15;;;7.20;61.00;;;;;;4951790;29;20354;-71
2021/12/02 12:40:07;;;;;;;24.40;2.38;;;7.50;57.40;;;;;;4952206;29;20175;-71
2021/12/02 12:42:34;;;;;;;20.30;1.98;;;7.70;56.10;;;;;;4951885;29;20246;-71
2021/12/02 12:45:01;;;;;;;23.13;2.20;;;;;;;;;;4950309;29;21505;-72
2021/12/02 12:47:46;;;;;;;17.25;2.22;;;7.00;62.10;;;;;;4933066;29;20616;-69
2021/12/02 12:50:21;;;;;;;11.30;1.60;;;;;;;;;;4932830;29;20547;-71
2021/12/02 12:52:53;;;;;;;18.02;2.08;;;7.50;56.10;;;;;;4933683;29;20187;-71
2021/12/02 12:55:20;;;;;;;20.73;2.10;;;;;;;;;;4932723;29;20902;-71
2021/12/02 12:58:30;;;;;;;20.23;1.98;;;6.80;58.50;;;;;;4932336;29;20181;-70
2021/12/02 13:01:16;;;;;;;21.88;2.20;;;7.00;58.00;;;;;;4912896;29;20562;-71
2021/12/02 13:03:45;;;;;;;27.25;2.42;;;7.40;57.30;;;;;;4911794;29;20172;-71
2021/12/02 13:06:19;;;;;;;43.38;3.80;;;7.90;55.20;;;;;;4946095;29;20180;-71
2021/12/02 13:08:45;;;;;;;20.35;2.05;;;;;;;;;;4951688;29;20285;-70
2021/12/02 13:11:23;;;;;;;20.58;2.08;;;7.80;53.20;;;;;;4945065;29;20291;-71
2021/12/02 13:13:49;;;;;;;27.95;2.50;;;8.00;51.90;;;;;;4930455;29;20254;-71
2021/12/02 13:16:18;;;;;;;37.35;3.42;;;7.50;54.30;;;;;;4925155;29;20561;-71
2021/12/02 13:18:44;;;;;;;26.50;2.97;;;;;;;;;;4931367;29;20200;-69
2021/12/02 13:21:28;;;;;;;33.03;3.10;;;7.60;56.60;;;;;;4931721;29;20219;-70
2021/12/02 13:23:54;;;;;;;26.92;2.58;;;;;;;;;;4932364;29;20534;-71
2021/12/02 13:26:27;;;;;;;22.40;2.35;;;7.40;55.10;;;;;;4931664;29;20601;-71
2021/12/02 13:28:57;;;;;;;23.63;2.70;;;8.00;55.10;;;;;;4931701;29;20208;-72
2021/12/02 13:31:25;;;;;;;37.30;2.90;;;7.90;53.00;;;;;;4965545;28;20213;-71
2021/12/02 13:34:00;;;;;;;27.27;2.50;;;7.70;54.00;;;;;;5022783;28;20230;-71